El Dorado, Arkansas
Current Conditions -  °F | °C
As of 6:53 PM on Friday 19 Dec 2014 (Local Time) from KELD Reporting Station
Overcast Overcast  
Wind Chill: 43°   Ceiling: 5000
Heat Index: 46°   Visibility: 9mi
Dew Point: 43°   Wind: 6mph
Humidity: 89%   Direction: 30°NNE
Pressure: 30.2"   Gusts: NA
Location:  33.21°N, 92.66°W
Report Text: KELD 200053Z AUTO 03005KT 9SM FEW015 OVC050 08/06 A3020 RMK AO2 SLP226 T00780061
Loading
Personal Weather Stations






























Interactive Weather Map New forecast layout! Learn more

10-Day Weather Forecast

Advertisements
Track Severe Weather on mobile